sensor_id;sensor_type;location;lat;lon;timestamp;temperature;humidity
24207;DHT22;12351;52.284;9.160;2023-04-07T00:02:01;7.70;1.00
24207;DHT22;12351;52.284;9.160;2023-04-07T00:04:52;7.80;1.00
24207;DHT22;12351;52.284;9.160;2023-04-07T00:07:41;7.80;1.00
24207;DHT22;12351;52.284;9.160;2023-04-07T00:10:33;7.80;1.00
24207;DHT22;12351;52.284;9.160;2023-04-07T00:13:24;7.90;1.00
24207;DHT22;12351;52.284;9.160;2023-04-07T00:16:14;7.80;1.00
24207;DHT22;12351;52.284;9.160;2023-04-07T00:19:02;7.80;1.00
24207;DHT22;12351;52.284;9.160;2023-04-07T00:21:51;7.70;1.00
24207;DHT22;12351;52.284;9.160;2023-04-07T00:24:41;7.60;1.00
24207;DHT22;12351;52.284;9.160;2023-04-07T00:27:30;7.50;1.00
24207;DHT22;12351;52.284;9.160;2023-04-07T00:30:18;7.40;1.00
24207;DHT22;12351;52.284;9.160;2023-04-07T00:33:07;7.40;1.00
24207;DHT22;12351;52.284;9.160;2023-04-07T00:35:54;7.30;1.00
24207;DHT22;12351;52.284;9.160;2023-04-07T00:38:43;7.30;1.00
24207;DHT22;12351;52.284;9.160;2023-04-07T00:41:34;7.30;1.00
24207;DHT22;12351;52.284;9.160;2023-04-07T00:44:25;7.20;17.40
24207;DHT22;12351;52.284;9.160;2023-04-07T00:47:13;7.20;52.50
24207;DHT22;12351;52.284;9.160;2023-04-07T00:50:04;7.20;63.90
24207;DHT22;12351;52.284;9.160;2023-04-07T00:52:51;7.20;99.90
24207;DHT22;12351;52.284;9.160;2023-04-07T00:55:43;7.30;99.90
24207;DHT22;12351;52.284;9.160;2023-04-07T00:58:32;7.40;99.90
24207;DHT22;12351;52.284;9.160;2023-04-07T01:01:21;7.40;99.90
24207;DHT22;12351;52.284;9.160;2023-04-07T01:04:19;7.50;99.90
24207;DHT22;12351;52.284;9.160;2023-04-07T01:07:04;7.40;1.00
24207;DHT22;12351;52.284;9.160;2023-04-07T01:09:57;7.40;1.00
24207;DHT22;12351;52.284;9.160;2023-04-07T01:15:40;7.40;99.90
24207;DHT22;12351;52.284;9.160;2023-04-07T01:18:32;7.40;1.00
24207;DHT22;12351;52.284;9.160;2023-04-07T01:21:24;7.40;1.00
24207;DHT22;12351;52.284;9.160;2023-04-07T01:24:21;7.40;1.00
24207;DHT22;12351;52.284;9.160;2023-04-07T01:30:02;7.50;1.00
24207;DHT22;12351;52.284;9.160;2023-04-07T01:32:57;7.50;99.90
24207;DHT22;12351;52.284;9.160;2023-04-07T01:35:47;7.40;99.90
24207;DHT22;12351;52.284;9.160;2023-04-07T01:38:36;7.40;1.00
24207;DHT22;12351;52.284;9.160;2023-04-07T01:41:29;7.40;1.00
24207;DHT22;12351;52.284;9.160;2023-04-07T01:44:18;7.30;38.40
24207;DHT22;12351;52.284;9.160;2023-04-07T01:47:10;7.40;1.00
24207;DHT22;12351;52.284;9.160;2023-04-07T01:50:00;7.40;1.00
24207;DHT22;12351;52.284;9.160;2023-04-07T01:52:49;7.50;99.90
24207;DHT22;12351;52.284;9.160;2023-04-07T01:55:41;7.50;1.00
24207;DHT22;12351;52.284;9.160;2023-04-07T01:58:32;7.50;1.00
24207;DHT22;12351;52.284;9.160;2023-04-07T02:01:23;7.40;1.00
24207;DHT22;12351;52.284;9.160;2023-04-07T02:07:07;7.30;99.90
24207;DHT22;12351;52.284;9.160;2023-04-07T02:09:57;7.40;99.90
24207;DHT22;12351;52.284;9.160;2023-04-07T02:12:47;7.30;99.90
24207;DHT22;12351;52.284;9.160;2023-04-07T02:15:36;7.30;99.90
24207;DHT22;12351;52.284;9.160;2023-04-07T02:18:29;7.30;1.00
24207;DHT22;12351;52.284;9.160;2023-04-07T02:21:19;7.30;1.00
24207;DHT22;12351;52.284;9.160;2023-04-07T02:24:12;7.30;1.00
24207;DHT22;12351;52.284;9.160;2023-04-07T02:27:00;7.30;99.90
24207;DHT22;12351;52.284;9.160;2023-04-07T02:29:50;7.20;1.00
24207;DHT22;12351;52.284;9.160;2023-04-07T02:32:39;7.10;1.00
24207;DHT22;12351;52.284;9.160;2023-04-07T02:35:34;7.10;1.00
24207;DHT22;12351;52.284;9.160;2023-04-07T02:38:23;7.10;1.00
24207;DHT22;12351;52.284;9.160;2023-04-07T02:41:16;7.20;1.00
24207;DHT22;12351;52.284;9.160;2023-04-07T02:44:05;7.20;1.00
24207;DHT22;12351;52.284;9.160;2023-04-07T02:46:57;7.10;1.00
24207;DHT22;12351;52.284;9.160;2023-04-07T02:49:47;7.10;1.00
24207;DHT22;12351;52.284;9.160;2023-04-07T02:52:39;7.10;99.90
24207;DHT22;12351;52.284;9.160;2023-04-07T02:55:29;7.00;1.00
24207;DHT22;12351;52.284;9.160;2023-04-07T02:58:19;7.00;1.00
24207;DHT22;12351;52.284;9.160;2023-04-07T03:01:11;7.00;1.00
24207;DHT22;12351;52.284;9.160;2023-04-07T03:04:01;7.00;1.00
24207;DHT22;12351;52.284;9.160;2023-04-07T03:06:51;6.90;92.20
24207;DHT22;12351;52.284;9.160;2023-04-07T03:09:44;7.00;99.90
24207;DHT22;12351;52.284;9.160;2023-04-07T03:12:35;6.90;1.00
24207;DHT22;12351;52.284;9.160;2023-04-07T03:15:24;6.90;99.90
24207;DHT22;12351;52.284;9.160;2023-04-07T03:18:17;6.80;1.00
24207;DHT22;12351;52.284;9.160;2023-04-07T03:21:08;6.70;15.40
24207;DHT22;12351;52.284;9.160;2023-04-07T03:23:59;6.70;99.90
24207;DHT22;12351;52.284;9.160;2023-04-07T03:26:48;6.60;1.00
24207;DHT22;12351;52.284;9.160;2023-04-07T03:29:41;6.60;1.00
24207;DHT22;12351;52.284;9.160;2023-04-07T03:32:30;6.70;1.00
24207;DHT22;12351;52.284;9.160;2023-04-07T03:38:15;6.70;99.90
24207;DHT22;12351;52.284;9.160;2023-04-07T03:41:05;6.70;99.90
24207;DHT22;12351;52.284;9.160;2023-04-07T03:43:54;6.70;57.80
24207;DHT22;12351;52.284;9.160;2023-04-07T03:46:43;6.60;58.90
24207;DHT22;12351;52.284;9.160;2023-04-07T03:49:35;6.60;42.70
24207;DHT22;12351;52.284;9.160;2023-04-07T03:52:25;6.60;1.00
24207;DHT22;12351;52.284;9.160;2023-04-07T03:55:14;6.60;1.00
24207;DHT22;12351;52.284;9.160;2023-04-07T03:58:05;6.60;1.00
24207;DHT22;12351;52.284;9.160;2023-04-07T04:00:53;6.60;1.00
24207;DHT22;12351;52.284;9.160;2023-04-07T04:03:45;6.50;3.90
24207;DHT22;12351;52.284;9.160;2023-04-07T04:06:35;6.50;99.90
24207;DHT22;12351;52.284;9.160;2023-04-07T04:09:24;6.50;99.90
24207;DHT22;12351;52.284;9.160;2023-04-07T04:12:13;6.50;99.90
24207;DHT22;12351;52.284;9.160;2023-04-07T04:15:04;6.50;99.90
24207;DHT22;12351;52.284;9.160;2023-04-07T04:17:51;6.50;99.90
24207;DHT22;12351;52.284;9.160;2023-04-07T04:20:39;6.50;99.90
24207;DHT22;12351;52.284;9.160;2023-04-07T04:23:27;6.50;99.90
24207;DHT22;12351;52.284;9.160;2023-04-07T04:26:20;6.50;99.90
24207;DHT22;12351;52.284;9.160;2023-04-07T04:29:08;6.40;99.90
24207;DHT22;12351;52.284;9.160;2023-04-07T04:31:55;6.40;99.90
24207;DHT22;12351;52.284;9.160;2023-04-07T04:34:44;6.40;99.90
24207;DHT22;12351;52.284;9.160;2023-04-07T04:37:31;6.40;99.90
24207;DHT22;12351;52.284;9.160;2023-04-07T04:40:22;6.50;99.90
24207;DHT22;12351;52.284;9.160;2023-04-07T04:43:10;6.40;99.90
24207;DHT22;12351;52.284;9.160;2023-04-07T04:45:59;6.40;99.90
24207;DHT22;12351;52.284;9.160;2023-04-07T04:48:49;6.40;99.90
24207;DHT22;12351;52.284;9.160;2023-04-07T04:51:38;6.40;99.90
24207;DHT22;12351;52.284;9.160;2023-04-07T04:54:27;6.40;99.90
24207;DHT22;12351;52.284;9.160;2023-04-07T04:57:14;6.40;99.90
24207;DHT22;12351;52.284;9.160;2023-04-07T05:00:06;6.30;99.90
24207;DHT22;12351;52.284;9.160;2023-04-07T05:02:57;6.40;99.90
24207;DHT22;12351;52.284;9.160;2023-04-07T05:05:47;6.30;99.90
24207;DHT22;12351;52.284;9.160;2023-04-07T05:08:36;6.30;99.90
24207;DHT22;12351;52.284;9.160;2023-04-07T05:11:23;6.30;99.90
24207;DHT22;12351;52.284;9.160;2023-04-07T05:14:12;6.40;99.90
24207;DHT22;12351;52.284;9.160;2023-04-07T05:17:01;6.40;99.90
24207;DHT22;12351;52.284;9.160;2023-04-07T05:19:51;6.30;99.90
24207;DHT22;12351;52.284;9.160;2023-04-07T05:22:39;6.40;1.00
24207;DHT22;12351;52.284;9.160;2023-04-07T05:25:26;6.30;1.00
24207;DHT22;12351;52.284;9.160;2023-04-07T05:28:12;6.30;1.00
24207;DHT22;12351;52.284;9.160;2023-04-07T05:31:00;6.40;1.00
24207;DHT22;12351;52.284;9.160;2023-04-07T05:33:47;6.40;99.90
24207;DHT22;12351;52.284;9.160;2023-04-07T05:36:34;6.40;1.00
24207;DHT22;12351;52.284;9.160;2023-04-07T05:39:22;6.50;1.00
24207;DHT22;12351;52.284;9.160;2023-04-07T05:42:09;6.50;99.90
24207;DHT22;12351;52.284;9.160;2023-04-07T05:44:55;6.50;99.90
24207;DHT22;12351;52.284;9.160;2023-04-07T05:47:42;6.40;99.90
24207;DHT22;12351;52.284;9.160;2023-04-07T05:50:31;6.10;1.00
24207;DHT22;12351;52.284;9.160;2023-04-07T05:53:18;6.00;1.00
24207;DHT22;12351;52.284;9.160;2023-04-07T05:56:05;5.90;1.00
24207;DHT22;12351;52.284;9.160;2023-04-07T05:58:52;6.00;1.00
24207;DHT22;12351;52.284;9.160;2023-04-07T06:01:39;6.00;1.00
24207;DHT22;12351;52.284;9.160;2023-04-07T06:04:26;6.10;99.90
24207;DHT22;12351;52.284;9.160;2023-04-07T06:07:13;6.20;99.90
24207;DHT22;12351;52.284;9.160;2023-04-07T06:10:00;6.30;1.00
24207;DHT22;12351;52.284;9.160;2023-04-07T06:12:47;6.40;99.90
24207;DHT22;12351;52.284;9.160;2023-04-07T06:15:34;6.30;99.90
24207;DHT22;12351;52.284;9.160;2023-04-07T06:18:22;6.40;14.00
24207;DHT22;12351;52.284;9.160;2023-04-07T06:21:09;6.40;1.00
24207;DHT22;12351;52.284;9.160;2023-04-07T06:23:56;6.60;1.00
24207;DHT22;12351;52.284;9.160;2023-04-07T06:26:44;6.70;99.90
24207;DHT22;12351;52.284;9.160;2023-04-07T06:29:32;6.70;99.90
24207;DHT22;12351;52.284;9.160;2023-04-07T06:32:20;6.60;1.00
24207;DHT22;12351;52.284;9.160;2023-04-07T06:35:07;6.50;1.00
24207;DHT22;12351;52.284;9.160;2023-04-07T06:37:54;6.80;1.00
24207;DHT22;12351;52.284;9.160;2023-04-07T06:40:41;6.90;1.00
24207;DHT22;12351;52.284;9.160;2023-04-07T06:43:29;6.90;99.90
24207;DHT22;12351;52.284;9.160;2023-04-07T06:46:17;6.90;99.90
24207;DHT22;12351;52.284;9.160;2023-04-07T06:49:04;6.90;99.90
24207;DHT22;12351;52.284;9.160;2023-04-07T06:51:51;7.00;99.90
24207;DHT22;12351;52.284;9.160;2023-04-07T06:54:38;7.20;99.90
24207;DHT22;12351;52.284;9.160;2023-04-07T06:57:25;7.10;1.00
24207;DHT22;12351;52.284;9.160;2023-04-07T07:00:12;7.40;1.00
24207;DHT22;12351;52.284;9.160;2023-04-07T07:03:00;7.70;99.90
24207;DHT22;12351;52.284;9.160;2023-04-07T07:05:47;7.90;1.00
24207;DHT22;12351;52.284;9.160;2023-04-07T07:08:34;8.00;1.00
24207;DHT22;12351;52.284;9.160;2023-04-07T07:11:21;8.20;1.00
24207;DHT22;12351;52.284;9.160;2023-04-07T07:14:08;8.30;1.00
24207;DHT22;12351;52.284;9.160;2023-04-07T07:16:55;8.40;1.00
24207;DHT22;12351;52.284;9.160;2023-04-07T07:19:42;8.50;1.00
24207;DHT22;12351;52.284;9.160;2023-04-07T07:22:29;8.50;1.00
24207;DHT22;12351;52.284;9.160;2023-04-07T07:25:16;8.50;1.00
24207;DHT22;12351;52.284;9.160;2023-04-07T07:28:04;8.50;1.00
24207;DHT22;12351;52.284;9.160;2023-04-07T07:30:50;8.50;1.00
24207;DHT22;12351;52.284;9.160;2023-04-07T07:33:39;8.60;1.00
24207;DHT22;12351;52.284;9.160;2023-04-07T07:36:26;8.70;1.00
24207;DHT22;12351;52.284;9.160;2023-04-07T07:39:13;8.70;1.00
24207;DHT22;12351;52.284;9.160;2023-04-07T07:42:01;8.90;1.00
24207;DHT22;12351;52.284;9.160;2023-04-07T07:44:48;8.90;99.90
24207;DHT22;12351;52.284;9.160;2023-04-07T07:47:36;8.90;99.90
24207;DHT22;12351;52.284;9.160;2023-04-07T07:50:23;9.00;1.00
24207;DHT22;12351;52.284;9.160;2023-04-07T07:53:10;9.20;99.90
24207;DHT22;12351;52.284;9.160;2023-04-07T07:58:48;9.30;99.90
24207;DHT22;12351;52.284;9.160;2023-04-07T08:01:36;9.40;99.90
24207;DHT22;12351;52.284;9.160;2023-04-07T08:04:23;9.50;99.90
24207;DHT22;12351;52.284;9.160;2023-04-07T08:07:11;9.50;66.50
24207;DHT22;12351;52.284;9.160;2023-04-07T08:09:58;9.60;25.00
24207;DHT22;12351;52.284;9.160;2023-04-07T08:12:45;9.60;1.60
24207;DHT22;12351;52.284;9.160;2023-04-07T08:15:32;9.60;1.00
24207;DHT22;12351;52.284;9.160;2023-04-07T08:18:19;9.60;1.00
24207;DHT22;12351;52.284;9.160;2023-04-07T08:21:06;9.70;1.00
24207;DHT22;12351;52.284;9.160;2023-04-07T08:23:54;9.70;1.00
24207;DHT22;12351;52.284;9.160;2023-04-07T08:26:41;9.70;1.00
24207;DHT22;12351;52.284;9.160;2023-04-07T08:29:30;9.80;1.00
24207;DHT22;12351;52.284;9.160;2023-04-07T08:32:17;9.90;1.00
24207;DHT22;12351;52.284;9.160;2023-04-07T08:35:04;10.00;1.00
24207;DHT22;12351;52.284;9.160;2023-04-07T08:37:51;10.10;1.00
24207;DHT22;12351;52.284;9.160;2023-04-07T08:40:38;10.00;1.00
24207;DHT22;12351;52.284;9.160;2023-04-07T08:43:26;10.00;1.00
24207;DHT22;12351;52.284;9.160;2023-04-07T08:46:15;10.20;1.00
24207;DHT22;12351;52.284;9.160;2023-04-07T08:49:07;10.40;1.00
24207;DHT22;12351;52.284;9.160;2023-04-07T08:51:54;10.50;1.00
24207;DHT22;12351;52.284;9.160;2023-04-07T08:54:43;10.70;1.00
24207;DHT22;12351;52.284;9.160;2023-04-07T08:57:31;10.70;1.00
24207;DHT22;12351;52.284;9.160;2023-04-07T09:00:18;10.70;1.00
24207;DHT22;12351;52.284;9.160;2023-04-07T09:03:07;10.60;1.00
24207;DHT22;12351;52.284;9.160;2023-04-07T09:05:54;10.70;1.00
24207;DHT22;12351;52.284;9.160;2023-04-07T09:08:42;10.70;1.00
24207;DHT22;12351;52.284;9.160;2023-04-07T09:11:33;10.70;1.00
24207;DHT22;12351;52.284;9.160;2023-04-07T09:14:18;10.50;1.00
24207;DHT22;12351;52.284;9.160;2023-04-07T09:17:06;10.40;1.00
24207;DHT22;12351;52.284;9.160;2023-04-07T09:19:55;10.10;1.00
24207;DHT22;12351;52.284;9.160;2023-04-07T09:22:43;10.10;1.00
24207;DHT22;12351;52.284;9.160;2023-04-07T09:25:31;10.10;1.00
24207;DHT22;12351;52.284;9.160;2023-04-07T09:28:18;10.00;1.00
24207;DHT22;12351;52.284;9.160;2023-04-07T09:31:07;10.10;1.00
24207;DHT22;12351;52.284;9.160;2023-04-07T09:33:54;10.00;1.00
24207;DHT22;12351;52.284;9.160;2023-04-07T09:36:41;9.90;1.00
24207;DHT22;12351;52.284;9.160;2023-04-07T09:39:28;9.90;1.00
24207;DHT22;12351;52.284;9.160;2023-04-07T09:42:16;10.10;1.00
24207;DHT22;12351;52.284;9.160;2023-04-07T09:45:03;10.20;1.00
24207;DHT22;12351;52.284;9.160;2023-04-07T09:47:53;10.40;1.00
24207;DHT22;12351;52.284;9.160;2023-04-07T09:50:40;10.60;1.00
24207;DHT22;12351;52.284;9.160;2023-04-07T09:53:39;10.60;1.00
24207;DHT22;12351;52.284;9.160;2023-04-07T09:56:20;10.50;1.00
24207;DHT22;12351;52.284;9.160;2023-04-07T09:59:07;10.60;1.00
24207;DHT22;12351;52.284;9.160;2023-04-07T10:01:55;10.50;1.00
24207;DHT22;12351;52.284;9.160;2023-04-07T10:04:43;10.70;1.00
24207;DHT22;12351;52.284;9.160;2023-04-07T10:07:30;10.80;1.00
24207;DHT22;12351;52.284;9.160;2023-04-07T10:10:18;11.10;1.00
24207;DHT22;12351;52.284;9.160;2023-04-07T10:13:05;11.30;1.00
24207;DHT22;12351;52.284;9.160;2023-04-07T10:15:52;11.50;1.00
24207;DHT22;12351;52.284;9.160;2023-04-07T10:18:40;11.60;1.00
24207;DHT22;12351;52.284;9.160;2023-04-07T10:21:28;11.70;1.00
24207;DHT22;12351;52.284;9.160;2023-04-07T10:24:23;11.60;1.00
24207;DHT22;12351;52.284;9.160;2023-04-07T10:27:10;11.40;1.00
24207;DHT22;12351;52.284;9.160;2023-04-07T10:29:58;11.60;1.00
24207;DHT22;12351;52.284;9.160;2023-04-07T10:32:48;11.90;1.00
24207;DHT22;12351;52.284;9.160;2023-04-07T10:38:26;12.00;1.00
24207;DHT22;12351;52.284;9.160;2023-04-07T10:44:06;11.90;1.00
24207;DHT22;12351;52.284;9.160;2023-04-07T10:49:33;12.10;1.00
24207;DHT22;12351;52.284;9.160;2023-04-07T10:52:23;12.20;1.00
24207;DHT22;12351;52.284;9.160;2023-04-07T11:06:30;12.50;1.00
24207;DHT22;12351;52.284;9.160;2023-04-07T11:09:19;12.60;1.00
24207;DHT22;12351;52.284;9.160;2023-04-07T11:12:07;12.60;1.00
24207;DHT22;12351;52.284;9.160;2023-04-07T11:14:55;12.70;1.00
24207;DHT22;12351;52.284;9.160;2023-04-07T11:17:43;12.70;1.00
24207;DHT22;12351;52.284;9.160;2023-04-07T11:23:22;12.80;1.00
24207;DHT22;12351;52.284;9.160;2023-04-07T11:26:12;12.70;1.00
24207;DHT22;12351;52.284;9.160;2023-04-07T11:29:00;13.00;1.00
24207;DHT22;12351;52.284;9.160;2023-04-07T11:31:47;13.10;1.00
24207;DHT22;12351;52.284;9.160;2023-04-07T11:34:35;13.20;1.00
24207;DHT22;12351;52.284;9.160;2023-04-07T11:37:24;13.10;1.00
24207;DHT22;12351;52.284;9.160;2023-04-07T11:40:29;13.20;1.00
24207;DHT22;12351;52.284;9.160;2023-04-07T11:48:44;13.20;1.00
24207;DHT22;12351;52.284;9.160;2023-04-07T11:51:32;13.50;1.00
24207;DHT22;12351;52.284;9.160;2023-04-07T11:54:19;13.30;1.00
24207;DHT22;12351;52.284;9.160;2023-04-07T11:57:06;13.50;1.00
24207;DHT22;12351;52.284;9.160;2023-04-07T12:02:46;13.10;1.00
24207;DHT22;12351;52.284;9.160;2023-04-07T12:11:13;13.10;1.00
24207;DHT22;12351;52.284;9.160;2023-04-07T12:14:00;13.20;1.00
24207;DHT22;12351;52.284;9.160;2023-04-07T12:16:48;13.40;1.00
24207;DHT22;12351;52.284;9.160;2023-04-07T12:19:37;13.50;1.00
24207;DHT22;12351;52.284;9.160;2023-04-07T12:22:24;13.30;1.00
24207;DHT22;12351;52.284;9.160;2023-04-07T12:25:12;13.40;1.00
24207;DHT22;12351;52.284;9.160;2023-04-07T12:27:58;13.10;1.00
24207;DHT22;12351;52.284;9.160;2023-04-07T12:30:47;13.20;1.00
24207;DHT22;12351;52.284;9.160;2023-04-07T12:33:36;13.20;1.00
24207;DHT22;12351;52.284;9.160;2023-04-07T12:36:24;13.00;1.00
24207;DHT22;12351;52.284;9.160;2023-04-07T12:39:13;13.10;1.00
24207;DHT22;12351;52.284;9.160;2023-04-07T12:42:01;13.10;1.00
24207;DHT22;12351;52.284;9.160;2023-04-07T12:44:47;13.20;1.00
24207;DHT22;12351;52.284;9.160;2023-04-07T12:47:34;13.50;1.00
24207;DHT22;12351;52.284;9.160;2023-04-07T12:50:21;13.30;1.00
24207;DHT22;12351;52.284;9.160;2023-04-07T12:53:09;13.60;1.00
24207;DHT22;12351;52.284;9.160;2023-04-07T12:55:57;13.60;1.00
24207;DHT22;12351;52.284;9.160;2023-04-07T12:58:45;13.60;1.00
24207;DHT22;12351;52.284;9.160;2023-04-07T13:01:32;13.20;1.00
24207;DHT22;12351;52.284;9.160;2023-04-07T13:04:21;13.40;1.00
24207;DHT22;12351;52.284;9.160;2023-04-07T13:07:09;13.50;1.00
24207;DHT22;12351;52.284;9.160;2023-04-07T13:09:57;13.40;1.00
24207;DHT22;12351;52.284;9.160;2023-04-07T13:12:44;13.70;1.00
24207;DHT22;12351;52.284;9.160;2023-04-07T13:15:31;13.60;1.00
24207;DHT22;12351;52.284;9.160;2023-04-07T13:18:18;13.40;1.00
24207;DHT22;12351;52.284;9.160;2023-04-07T13:21:06;13.30;1.00
24207;DHT22;12351;52.284;9.160;2023-04-07T13:27:01;13.70;1.00
24207;DHT22;12351;52.284;9.160;2023-04-07T13:29:49;13.60;1.00
24207;DHT22;12351;52.284;9.160;2023-04-07T13:32:36;13.60;1.00
24207;DHT22;12351;52.284;9.160;2023-04-07T13:35:24;13.80;1.00
24207;DHT22;12351;52.284;9.160;2023-04-07T13:38:11;13.80;1.00
24207;DHT22;12351;52.284;9.160;2023-04-07T13:40:58;13.90;1.00
24207;DHT22;12351;52.284;9.160;2023-04-07T13:43:46;14.30;1.00
24207;DHT22;12351;52.284;9.160;2023-04-07T13:46:34;14.50;1.00
24207;DHT22;12351;52.284;9.160;2023-04-07T13:49:22;14.40;1.00
24207;DHT22;12351;52.284;9.160;2023-04-07T13:52:09;14.10;1.00
24207;DHT22;12351;52.284;9.160;2023-04-07T13:54:57;14.30;1.00
24207;DHT22;12351;52.284;9.160;2023-04-07T13:57:44;13.80;1.00
24207;DHT22;12351;52.284;9.160;2023-04-07T14:00:32;13.90;1.00
24207;DHT22;12351;52.284;9.160;2023-04-07T14:03:20;14.20;1.00
24207;DHT22;12351;52.284;9.160;2023-04-07T14:06:11;14.10;1.00
24207;DHT22;12351;52.284;9.160;2023-04-07T14:08:58;14.30;1.00
24207;DHT22;12351;52.284;9.160;2023-04-07T14:11:45;14.40;1.00
24207;DHT22;12351;52.284;9.160;2023-04-07T14:14:33;14.40;1.00
24207;DHT22;12351;52.284;9.160;2023-04-07T14:17:22;14.10;1.00
24207;DHT22;12351;52.284;9.160;2023-04-07T14:20:09;14.30;1.00
24207;DHT22;12351;52.284;9.160;2023-04-07T14:22:56;14.30;1.00
24207;DHT22;12351;52.284;9.160;2023-04-07T14:25:43;13.90;1.00
24207;DHT22;12351;52.284;9.160;2023-04-07T14:28:30;13.90;1.00
24207;DHT22;12351;52.284;9.160;2023-04-07T14:31:18;13.60;1.00
24207;DHT22;12351;52.284;9.160;2023-04-07T14:34:05;13.50;1.00
24207;DHT22;12351;52.284;9.160;2023-04-07T14:36:54;13.90;1.00
24207;DHT22;12351;52.284;9.160;2023-04-07T14:39:43;14.00;1.00
24207;DHT22;12351;52.284;9.160;2023-04-07T14:42:30;14.20;1.00
24207;DHT22;12351;52.284;9.160;2023-04-07T14:45:18;13.70;1.00
24207;DHT22;12351;52.284;9.160;2023-04-07T14:48:05;14.00;1.00
24207;DHT22;12351;52.284;9.160;2023-04-07T14:50:53;14.00;1.00
24207;DHT22;12351;52.284;9.160;2023-04-07T14:53:41;14.20;1.00
24207;DHT22;12351;52.284;9.160;2023-04-07T14:56:28;13.90;1.00
24207;DHT22;12351;52.284;9.160;2023-04-07T14:59:15;13.80;1.00
24207;DHT22;12351;52.284;9.160;2023-04-07T15:02:02;13.70;1.00
24207;DHT22;12351;52.284;9.160;2023-04-07T15:04:50;13.80;1.00
24207;DHT22;12351;52.284;9.160;2023-04-07T15:07:37;13.80;1.00
24207;DHT22;12351;52.284;9.160;2023-04-07T15:10:24;13.90;1.00
24207;DHT22;12351;52.284;9.160;2023-04-07T15:13:11;14.10;1.00
24207;DHT22;12351;52.284;9.160;2023-04-07T15:18:49;13.90;1.00
24207;DHT22;12351;52.284;9.160;2023-04-07T15:21:37;14.10;1.00
24207;DHT22;12351;52.284;9.160;2023-04-07T15:24:24;13.80;1.00
24207;DHT22;12351;52.284;9.160;2023-04-07T15:27:11;13.60;1.00
24207;DHT22;12351;52.284;9.160;2023-04-07T15:29:58;13.70;1.00
24207;DHT22;12351;52.284;9.160;2023-04-07T15:35:35;13.80;1.00
24207;DHT22;12351;52.284;9.160;2023-04-07T15:38:22;13.50;1.00
24207;DHT22;12351;52.284;9.160;2023-04-07T15:41:12;13.50;1.00
24207;DHT22;12351;52.284;9.160;2023-04-07T15:44:01;13.50;1.00
24207;DHT22;12351;52.284;9.160;2023-04-07T15:46:48;13.60;1.00
24207;DHT22;12351;52.284;9.160;2023-04-07T15:49:36;13.70;1.00
24207;DHT22;12351;52.284;9.160;2023-04-07T15:52:23;13.70;1.00
24207;DHT22;12351;52.284;9.160;2023-04-07T15:55:12;13.70;1.00
24207;DHT22;12351;52.284;9.160;2023-04-07T15:57:59;13.60;1.00
24207;DHT22;12351;52.284;9.160;2023-04-07T16:00:46;13.60;1.00
24207;DHT22;12351;52.284;9.160;2023-04-07T16:03:34;13.60;1.00
24207;DHT22;12351;52.284;9.160;2023-04-07T16:06:21;13.10;1.00
24207;DHT22;12351;52.284;9.160;2023-04-07T16:09:09;13.40;1.00
24207;DHT22;12351;52.284;9.160;2023-04-07T16:11:56;13.40;1.00
24207;DHT22;12351;52.284;9.160;2023-04-07T16:14:43;13.60;1.00
24207;DHT22;12351;52.284;9.160;2023-04-07T16:17:30;13.80;1.00
24207;DHT22;12351;52.284;9.160;2023-04-07T16:20:16;13.30;1.00
24207;DHT22;12351;52.284;9.160;2023-04-07T16:23:03;13.40;1.00
24207;DHT22;12351;52.284;9.160;2023-04-07T16:25:50;13.70;1.00
24207;DHT22;12351;52.284;9.160;2023-04-07T16:28:38;13.40;1.00
24207;DHT22;12351;52.284;9.160;2023-04-07T16:31:26;13.20;1.00
24207;DHT22;12351;52.284;9.160;2023-04-07T16:34:14;13.40;1.00
24207;DHT22;12351;52.284;9.160;2023-04-07T16:37:01;13.40;1.00
24207;DHT22;12351;52.284;9.160;2023-04-07T16:39:48;13.50;1.00
24207;DHT22;12351;52.284;9.160;2023-04-07T16:42:35;13.60;1.00
24207;DHT22;12351;52.284;9.160;2023-04-07T16:45:22;13.10;1.00
24207;DHT22;12351;52.284;9.160;2023-04-07T16:48:09;13.20;1.00
24207;DHT22;12351;52.284;9.160;2023-04-07T16:50:55;13.20;1.00
24207;DHT22;12351;52.284;9.160;2023-04-07T16:53:42;13.00;1.00
24207;DHT22;12351;52.284;9.160;2023-04-07T16:56:30;13.20;1.00
24207;DHT22;12351;52.284;9.160;2023-04-07T16:59:17;13.00;1.00
24207;DHT22;12351;52.284;9.160;2023-04-07T17:02:07;12.80;1.00
24207;DHT22;12351;52.284;9.160;2023-04-07T17:04:55;12.90;1.00
24207;DHT22;12351;52.284;9.160;2023-04-07T17:07:42;13.00;1.00
24207;DHT22;12351;52.284;9.160;2023-04-07T17:10:29;12.90;1.00
24207;DHT22;12351;52.284;9.160;2023-04-07T17:13:16;13.00;1.00
24207;DHT22;12351;52.284;9.160;2023-04-07T17:16:03;12.90;1.00
24207;DHT22;12351;52.284;9.160;2023-04-07T17:18:51;13.00;1.00
24207;DHT22;12351;52.284;9.160;2023-04-07T17:21:38;12.70;1.00
24207;DHT22;12351;52.284;9.160;2023-04-07T17:24:25;12.80;1.00
24207;DHT22;12351;52.284;9.160;2023-04-07T17:27:13;12.50;1.00
24207;DHT22;12351;52.284;9.160;2023-04-07T17:30:01;12.60;1.00
24207;DHT22;12351;52.284;9.160;2023-04-07T17:32:48;12.60;1.00
24207;DHT22;12351;52.284;9.160;2023-04-07T17:35:36;12.60;1.00
24207;DHT22;12351;52.284;9.160;2023-04-07T17:38:24;12.70;1.00
24207;DHT22;12351;52.284;9.160;2023-04-07T17:41:11;12.70;1.00
24207;DHT22;12351;52.284;9.160;2023-04-07T17:43:58;12.50;1.00
24207;DHT22;12351;52.284;9.160;2023-04-07T17:46:45;12.50;1.00
24207;DHT22;12351;52.284;9.160;2023-04-07T17:49:33;12.30;1.00
24207;DHT22;12351;52.284;9.160;2023-04-07T17:52:20;12.10;1.00
24207;DHT22;12351;52.284;9.160;2023-04-07T17:55:08;12.00;1.00
24207;DHT22;12351;52.284;9.160;2023-04-07T17:57:55;11.70;1.00
24207;DHT22;12351;52.284;9.160;2023-04-07T18:00:44;11.80;1.00
24207;DHT22;12351;52.284;9.160;2023-04-07T18:03:31;11.60;1.00
24207;DHT22;12351;52.284;9.160;2023-04-07T18:06:31;11.30;1.00
24207;DHT22;12351;52.284;9.160;2023-04-07T18:09:19;11.50;1.00
24207;DHT22;12351;52.284;9.160;2023-04-07T18:12:07;11.60;1.00
24207;DHT22;12351;52.284;9.160;2023-04-07T18:14:54;11.50;1.00
24207;DHT22;12351;52.284;9.160;2023-04-07T18:17:41;11.40;1.00
24207;DHT22;12351;52.284;9.160;2023-04-07T18:20:28;11.30;1.00
24207;DHT22;12351;52.284;9.160;2023-04-07T18:23:16;11.20;1.00
24207;DHT22;12351;52.284;9.160;2023-04-07T18:26:05;11.00;1.00
24207;DHT22;12351;52.284;9.160;2023-04-07T18:28:52;11.10;1.00
24207;DHT22;12351;52.284;9.160;2023-04-07T18:31:40;11.00;1.00
24207;DHT22;12351;52.284;9.160;2023-04-07T18:34:28;10.90;1.00
24207;DHT22;12351;52.284;9.160;2023-04-07T18:37:18;10.90;1.00
24207;DHT22;12351;52.284;9.160;2023-04-07T18:40:08;10.80;1.00
24207;DHT22;12351;52.284;9.160;2023-04-07T18:42:58;10.80;1.00
24207;DHT22;12351;52.284;9.160;2023-04-07T18:45:48;10.70;1.00
24207;DHT22;12351;52.284;9.160;2023-04-07T18:48:38;10.50;1.00
24207;DHT22;12351;52.284;9.160;2023-04-07T18:51:27;10.40;1.00
24207;DHT22;12351;52.284;9.160;2023-04-07T18:54:17;10.40;1.00
24207;DHT22;12351;52.284;9.160;2023-04-07T18:57:06;10.30;1.00
24207;DHT22;12351;52.284;9.160;2023-04-07T18:59:53;10.10;1.00
24207;DHT22;12351;52.284;9.160;2023-04-07T19:02:40;10.10;1.00
24207;DHT22;12351;52.284;9.160;2023-04-07T19:05:28;10.00;1.00